Date,TemperatureHighF,TemperatureAvgF,TemperatureLowF,DewpointHighF,DewpointAvgF,DewpointLowF,HumidityHigh,HumidityAvg,HumidityLow,PressureMaxIn,PressureMinIn,WindSpeedMaxMPH,WindSpeedAvgMPH,GustSpeedMaxMPH,PrecipitationSumIn
2013-1-1,41,38,27,29,24,11,68,58,47,29.98,29.78,16,7,16,0.00
2013-1-2,35,29,23,17,13,9,59,51,41,30.13,29.95,18,8,18,0.00
2013-1-3,35,30,26,20,16,14,66,56,45,30.16,30.02,14,6,14,0.00
2013-1-4,40,35,31,23,22,19,66,58,48,30.06,29.90,16,7,16,0.00
2013-1-5,44,38,32,24,21,18,61,51,41,30.22,29.96,15,6,15,0.00
2013-1-6,48,40,34,34,29,23,93,65,50,30.18,29.92,13,5,13,0.00
2013-1-7,47,41,32,30,26,21,78,57,39,30.36,30.00,15,5,15,0.00
2013-1-8,50,42,34,34,31,27,82,66,50,30.52,30.30,14,4,14,0.00
2013-1-9,50,43,34,41,36,30,95,76,63,30.35,30.08,12,4,12,0.00
2013-1-10,49,43,40,34,26,23,65,51,37,30.50,30.17,16,6,16,0.00
2013-1-11,47,42,37,46,35,24,99,76,53,30.50,30.05,7,3,7,0.48
2013-1-12,48,45,43,47,44,43,99,99,95,30.13,30.01,13,4,13,0.07
2013-1-13,47,45,44,46,45,44,99,99,98,30.12,29.98,7,3,7,0.00
2013-1-14,58,50,47,54,46,37,98,87,53,30.09,29.71,14,5,14,0.11
2013-1-16,38,36,33,37,35,18,99,97,54,30.08,29.76,10,4,10,1.11
2013-1-17,46,41,36,35,29,24,90,64,51,30.05,29.86,15,6,15,0.00
2013-1-18,36,33,29,24,17,3,63,53,31,30.45,29.95,11,4,11,0.02
2013-1-19,39,36,30,27,24,14,67,60,49,30.38,25.26,14,9,14,0.00
2013-1-20,38,38,38,27,27,27,62,62,62,29.89,29.41,9,9,9,0.00
2013-1-21,38,31,29,27,18,13,69,57,45,29.88,29.64,15,5,15,0.00
2013-1-22,29,22,18,15,2,-6,57,43,27,30.16,29.78,20,10,20,0.00
2013-1-23,18,18,18,0,-2,-5,44,42,35,30.22,30.13,13,9,13,0.00
2013-1-24,26,20,15,4,-1,-6,61,41,27,30.25,30.09,20,8,20,0.00
2013-1-25,25,20,14,20,9,-2,94,63,35,30.38,30.02,14,5,14,0.00
2013-1-26,26,21,17,15,10,5,83,64,46,30.33,29.99,21,6,21,0.00
2013-1-27,35,29,20,13,10,7,70,47,33,30.47,30.33,13,7,13,0.00
2013-1-29,42,42,42,42,42,42,99,99,99,30.07,30.05,5,2,5,0.00
2013-1-30,52,47,42,52,47,42,99,99,99,30.05,29.35,15,6,15,0.00
2013-1-31,51,44,30,51,30,9,99,62,35,29.75,29.00,23,12,23,0.03
2013-2-1,33,29,25,15,11,4,62,46,31,30.19,29.75,23,9,23,0.00
2013-2-2,31,26,20,23,10,5,90,52,34,30.26,30.03,14,6,14,0.00
2013-2-3,31,27,25,24,21,16,93,79,58,30.02,29.76,8,3,8,0.00
2013-2-4,32,30,28,18,10,8,62,44,38,29.94,29.86,17,8,17,0.00
2013-2-5,32,30,29,30,26,18,93,85,62,29.94,29.85,8,4,8,0.00
2013-2-6,41,35,30,31,22,2,98,63,30,30.32,29.87,20,7,20,0.01
2013-2-7,34,30,27,23,10,2,67,43,30,30.48,30.29,9,4,9,0.00
2013-2-8,36,33,27,35,31,23,99,91,67,30.29,29.55,24,10,24,0.46
2013-2-9,35,28,22,28,19,7,99,72,37,30.29,29.68,22,10,22,0.01
2013-2-10,38,28,18,30,15,7,88,60,36,30.44,30.29,12,4,12,0.12
2013-2-11,46,41,34,46,40,28,99,95,76,30.30,29.61,11,2,11,0.80
2013-2-12,47,42,37,42,28,25,99,60,46,29.92,29.67,18,8,18,0.01
2013-2-13,47,40,28,34,27,23,95,61,47,29.87,29.64,9,2,9,0.04
2013-2-14,47,39,32,37,32,24,97,77,45,29.96,29.66,12,5,12,0.02
2013-2-15,46,40,32,39,35,30,98,86,52,29.97,29.88,12,3,12,0.00
2013-2-16,44,37,32,35,34,16,92,89,51,29.91,29.67,13,4,13,0.00
2013-2-17,34,28,18,16,6,-1,52,40,27,29.95,29.60,25,13,25,0.00
2013-2-18,36,27,18,18,7,2,54,42,29,30.20,29.95,21,9,21,0.00
2013-2-19,46,39,31,44,32,17,99,77,52,30.17,29.62,18,6,18,0.11
2013-2-20,39,32,26,27,15,10,65,49,38,29.94,29.67,22,11,22,0.02
2013-2-21,37,29,25,16,13,10,63,50,39,30.23,29.93,21,11,21,0.00
2013-2-22,40,33,27,33,23,16,84,67,52,30.36,30.22,17,5,17,0.00
2013-2-23,43,38,36,43,37,33,99,95,83,30.24,29.75,14,5,14,0.34
2013-2-24,49,40,34,40,33,23,99,77,54,29.91,29.68,21,8,21,0.02
2013-2-25,47,39,32,29,26,23,73,59,45,30.18,29.91,15,5,15,0.00
2013-2-26,46,39,33,37,32,28,97,78,60,30.25,29.86,20,5,20,0.14
2013-2-27,50,46,37,49,45,37,99,98,96,29.86,29.44,23,8,23,1.22
2013-2-28,49,45,40,33,31,29,71,59,54,29.55,29.48,10,6,10,1.22
2013-3-1,46,40,36,32,30,26,79,67,52,29.73,29.55,14,6,14,0.00
2013-3-2,41,37,32,30,26,24,88,65,53,29.73,29.64,13,7,13,0.00
2013-3-3,43,34,29,28,21,18,91,60,41,29.71,29.60,18,8,18,0.00
2013-3-4,36,31,30,21,19,18,61,59,54,29.85,29.71,18,9,18,0.00
2013-3-5,39,36,32,25,23,21,68,60,55,29.97,29.85,20,8,20,0.00
2013-3-6,43,40,35,38,29,25,89,67,55,29.93,29.79,30,12,30,0.02
2013-3-7,39,36,33,34,32,28,99,87,73,30.02,24.43,23,10,23,0.13
2013-3-8,41,36,32,35,32,28,99,88,62,30.12,29.94,17,8,17,0.38
2013-3-9,56,44,35,35,26,20,93,53,26,30.28,30.11,14,6,14,0.00
2013-3-10,47,39,33,37,35,30,99,84,65,30.34,30.26,12,4,12,0.00
2013-3-11,54,46,39,47,43,36,99,89,75,30.39,30.06,14,5,14,0.00
2013-3-12,48,47,46,48,47,46,99,99,97,30.07,29.92,12,6,12,0.03
2013-3-18,34,34,33,34,33,33,99,99,99,30.03,29.92,10,7,10,3.26
2013-3-19,39,37,34,38,36,34,99,98,95,29.98,29.63,18,8,18,1.39
2013-3-20,48,41,33,22,20,18,61,44,32,29.84,29.65,17,7,17,0.00
2013-3-21,41,34,33,28,27,21,77,75,46,29.80,29.57,10,6,10,0.00
2013-3-22,33,33,33,27,27,27,77,77,77,29.72,29.67,6,6,6,0.00
2013-3-26,51,46,33,32,28,26,77,49,39,29.81,29.68,12,5,12,0.00
2013-3-27,56,45,39,32,26,21,62,48,28,29.92,29.81,18,7,18,0.00
2013-3-28,50,45,38,31,30,29,72,56,47,30.06,29.91,15,7,15,0.00
2013-3-29,49,49,49,30,30,30,47,47,47,30.08,30.05,7,7,7,0.00
2013-3-30,49,47,41,38,32,30,85,57,47,30.08,30.07,7,5,7,0.00
2013-3-31,54,46,38,46,38,28,99,74,57,30.08,29.61,16,4,16,0.11
2013-4-1,66,50,42,48,40,18,99,72,37,29.86,29.56,22,7,22,0.12
2013-4-2,47,40,34,18,14,10,47,36,25,30.03,29.86,21,8,21,0.00
2013-4-3,49,38,34,14,12,10,43,36,22,30.22,30.03,21,7,21,0.02
2013-4-4,50,42,36,36,21,11,76,46,27,30.34,30.06,16,6,16,0.00
2013-4-5,48,46,41,37,34,25,83,65,51,30.06,29.64,11,3,11,0.00
2013-4-6,52,48,39,35,23,8,61,40,20,30.27,29.89,18,4,18,0.00
2013-4-7,50,48,47,46,44,18,95,86,27,30.27,29.96,18,8,18,0.00
2013-4-8,67,56,43,50,45,43,99,70,45,30.03,29.93,10,2,10,0.00
2013-4-9,84,69,51,55,47,38,94,52,22,29.92,29.84,16,4,16,0.05
2013-4-10,75,61,55,57,51,46,99,71,51,29.94,29.76,17,4,17,0.70
2013-4-11,62,54,48,57,51,42,99,88,68,30.00,29.71,14,5,14,0.03
2013-4-12,48,44,42,44,42,40,99,92,73,29.99,29.66,18,8,18,1.01
2013-4-13,58,47,40,47,41,34,99,81,48,30.14,29.68,12,5,12,0.05
2013-4-14,60,53,46,48,37,29,99,60,31,30.18,29.93,16,6,16,0.00
2013-4-15,48,45,45,29,28,28,53,52,48,30.33,30.17,9,3,9,0.00
2013-4-17,72,61,52,59,48,40,99,66,33,30.25,30.06,14,4,14,0.01
2013-4-18,59,54,48,55,47,42,99,79,57,30.31,30.07,17,5,17,0.00
2013-4-19,68,58,52,63,57,52,99,97,85,30.07,24.16,20,8,20,0.00
2013-4-20,62,55,50,59,38,28,99,58,29,30.24,29.61,18,8,18,0.19
2013-4-21,55,46,39,32,25,20,55,45,28,30.59,30.25,18,7,18,0.00
2013-4-22,50,47,47,36,32,32,62,56,55,30.62,30.47,9,4,9,0.00
2013-4-23,52,49,47,44,39,35,82,68,62,30.48,30.06,16,7,16,0.00
2013-4-24,52,49,41,51,44,39,99,84,75,30.07,29.81,15,4,15,0.00
2013-4-25,59,54,47,54,34,29,99,50,37,30.22,29.83,20,7,20,0.00
2013-4-26,55,55,55,29,29,29,37,37,37,30.35,30.22,6,6,6,0.00
2013-5-9,66,64,55,61,58,29,89,82,37,30.28,29.85,6,4,6,29.90
2013-5-11,64,62,61,64,62,61,99,99,99,29.86,29.66,14,7,14,0.37
2013-5-12,62,62,62,62,62,62,99,99,99,29.69,29.61,8,8,8,0.00
2013-5-17,80,64,60,46,45,42,54,50,29,30.16,29.90,9,3,9,0.00
2013-5-18,60,60,60,44,44,44,54,54,54,30.16,30.16,0,0,0,0.00
2013-5-21,80,78,75,70,69,61,79,75,54,30.16,29.80,9,4,9,0.00
2013-5-22,74,67,65,69,66,64,99,96,86,29.85,29.80,7,4,7,0.00
2013-5-23,75,66,62,70,65,58,99,97,85,29.87,29.73,16,6,16,0.10
2013-5-24,70,60,55,68,58,52,99,93,89,29.90,29.64,15,3,15,0.10
2013-5-25,55,55,55,52,52,52,89,89,89,29.89,29.85,4,4,4,0.00
2013-5-29,63,61,55,62,61,52,99,99,89,30.06,29.85,4,0,4,0.00
2013-5-30,94,80,69,72,68,63,95,68,44,30.08,29.96,13,4,13,0.00
2013-5-31,90,78,69,78,69,64,92,76,58,30.08,29.94,13,3,13,0.00
2013-6-1,86,75,68,73,69,66,97,82,65,29.99,29.86,14,5,14,0.00
2013-6-2,80,71,65,71,67,64,99,88,71,29.89,29.74,14,5,14,0.00
2013-6-3,80,71,64,72,69,52,99,94,55,29.82,29.76,11,3,11,1.03
2013-6-4,82,69,59,54,46,40,62,45,26,30.06,29.82,16,6,16,0.00
2013-6-5,76,67,58,59,48,39,97,52,37,30.17,30.06,13,5,13,0.00
2013-6-6,72,64,57,62,59,50,99,85,48,30.11,29.98,14,4,14,0.05
2013-6-7,64,62,60,64,61,59,99,99,99,29.98,29.56,14,5,14,4.92
2013-6-8,82,68,57,68,63,57,99,85,62,30.00,29.51,15,6,15,0.74
2013-6-9,83,72,63,66,63,57,98,75,48,30.13,30.00,12,3,12,0.00
2013-6-10,72,67,64,70,66,64,99,97,88,30.12,29.80,12,3,12,1.36
2013-6-11,85,74,66,72,68,62,99,81,59,29.80,29.57,17,6,17,0.52
2013-6-12,81,73,65,64,58,54,81,61,43,29.80,29.66,20,7,20,0.00
2013-6-13,68,64,57,64,61,56,99,89,74,29.80,29.40,21,5,21,1.58
2013-6-14,75,63,54,62,56,54,99,80,55,29.83,29.44,21,6,21,0.41
2013-6-15,85,75,64,62,56,49,82,54,34,29.96,29.83,14,4,14,0.00
2013-6-16,84,73,62,69,62,56,84,69,53,29.95,29.73,12,4,12,0.00
2013-6-17,87,76,68,72,69,67,98,80,57,29.88,29.79,13,4,13,0.17
2013-6-18,83,71,66,72,68,65,99,91,68,29.86,29.77,9,3,9,0.31
2013-6-19,82,70,60,65,56,42,99,67,27,30.13,29.82,14,5,14,0.02
2013-6-20,78,70,59,63,58,53,86,65,49,30.24,30.13,16,6,16,0.00
2013-6-21,81,71,63,62,57,52,78,62,45,30.27,30.21,14,6,14,0.00
2013-6-22,82,71,63,68,62,53,89,72,61,30.23,30.11,12,5,12,0.00
2013-6-23,85,75,68,74,68,60,99,81,64,30.16,30.03,17,6,17,0.00
2013-6-24,96,82,72,77,72,64,99,73,38,30.05,29.91,13,4,13,0.00
2013-6-25,94,83,72,76,71,64,88,67,49,29.96,29.76,14,5,14,0.00
2013-6-26,89,80,74,74,71,68,96,75,55,29.80,29.73,11,4,11,0.01
2013-6-27,87,78,73,77,74,72,99,88,67,29.79,29.54,16,4,16,0.13
2013-6-28,87,77,72,75,73,70,99,88,68,29.54,29.44,13,6,13,0.02
2013-6-29,84,76,70,74,72,70,99,90,66,29.66,29.45,15,5,15,0.00
2013-6-30,86,75,69,78,73,69,99,96,79,29.89,29.66,12,4,12,0.01
2013-7-1,77,73,71,76,73,71,99,99,97,30.03,29.87,13,5,13,0.78
2013-7-2,80,73,71,76,73,71,99,98,89,30.16,30.02,12,6,12,0.21
2013-7-3,85,76,71,78,74,71,99,95,79,30.22,30.14,13,4,13,0.09
2013-7-4,87,80,75,80,77,74,99,89,74,30.22,30.12,14,5,14,0.01
2013-7-5,91,84,76,80,77,75,99,80,69,30.18,30.05,12,6,12,0.01
2013-7-6,99,89,78,79,76,72,94,66,46,30.11,29.98,12,5,12,0.00
2013-7-7,92,89,83,78,77,75,78,69,61,30.03,29.88,11,5,11,0.00
2013-7-8,92,85,80,77,73,68,76,69,51,30.00,29.93,12,6,12,0.00
2013-7-9,89,81,74,77,72,68,87,74,63,30.17,29.95,13,5,13,0.00
2013-7-10,89,79,73,80,75,71,99,88,67,29.98,29.77,12,4,12,0.67
2013-7-11,88,80,77,76,73,66,94,79,60,29.88,29.76,8,4,8,0.00
2013-7-12,80,74,69,73,69,64,99,85,68,30.06,29.88,13,6,13,0.43
2013-7-13,88,76,69,79,74,69,99,94,76,30.25,30.06,10,4,10,0.36
2013-7-14,92,82,74,79,76,74,99,84,63,30.30,30.20,12,4,12,0.00
2013-7-15,99,88,78,78,75,73,88,68,46,30.21,30.08,11,4,11,0.00
2013-7-16,96,88,80,75,70,65,79,58,38,30.16,30.08,15,4,15,0.00
2013-7-17,97,87,80,75,71,68,78,61,40,30.15,30.03,10,4,10,0.00
2013-7-18,96,90,81,77,74,72,77,60,51,30.03,29.98,9,3,9,0.00
2013-7-19,98,94,87,80,76,75,70,55,52,29.99,29.74,14,5,14,0.00
2013-7-20,97,87,78,77,74,72,86,67,47,29.78,29.67,15,6,15,0.10
2013-7-21,89,82,76,75,70,46,89,69,48,29.92,29.78,9,4,9,0.00
2013-7-22,86,78,75,78,75,72,99,90,73,29.92,29.76,8,3,8,0.26
2013-7-23,89,80,73,77,75,71,99,84,66,29.76,29.51,14,4,14,0.53
2013-7-24,86,79,71,72,67,56,89,68,53,29.88,29.57,16,4,16,0.00
2013-7-25,71,66,64,62,57,54,91,73,61,30.01,29.88,16,8,16,0.00
2013-7-26,84,72,64,70,64,60,93,75,50,30.16,29.95,12,5,12,0.05
2013-7-27,84,75,68,71,68,64,97,80,59,30.15,29.93,12,5,12,0.00
2013-7-28,80,74,69,73,71,68,99,91,72,29.96,29.89,13,4,13,0.08
2013-7-29,89,78,69,73,66,51,99,71,33,30.06,23.95,11,4,11,0.04
2013-7-30,84,73,65,58,57,54,76,57,42,30.12,30.05,10,3,10,0.00
2013-7-31,84,75,66,66,60,57,80,62,45,30.12,30.01,10,4,10,0.00
2013-8-1,77,71,68,70,67,64,99,87,75,30.01,29.79,13,4,13,0.78
2013-8-2,90,78,66,70,65,59,99,69,38,29.87,29.75,14,4,14,0.02
2013-8-3,81,75,72,68,64,59,82,70,57,29.88,29.79,12,4,12,0.01
2013-8-4,83,75,68,66,57,51,83,56,37,29.91,29.80,17,5,17,0.00
2013-8-5,85,72,63,59,51,44,69,49,29,30.01,29.91,16,5,16,0.03
2013-8-6,82,73,62,62,58,52,86,63,38,30.08,29.99,12,4,12,0.00
2013-8-7,82,74,70,70,65,61,92,74,62,30.11,30.03,13,6,13,0.00
2013-8-8,80,74,70,75,72,70,99,94,85,30.04,30.00,11,4,11,0.14
2013-8-9,88,79,74,78,76,73,99,90,72,30.00,29.76,15,6,15,0.16
2013-8-10,88,79,72,75,64,56,93,63,43,30.01,29.81,11,5,11,0.00
2013-8-11,85,74,65,64,57,52,74,56,38,30.09,30.00,10,4,10,0.00
2013-8-12,80,74,69,73,71,68,99,91,78,30.00,29.90,6,2,6,1.10
2013-8-13,82,74,71,71,71,70,99,89,71,29.90,29.66,5,2,5,0.00
2013-8-14,68,68,68,61,61,61,80,80,80,29.73,29.72,2,1,2,0.00
2013-8-15,72,70,68,61,59,58,73,70,63,30.10,29.83,10,4,10,0.00
2013-8-16,80,71,59,60,56,53,91,61,40,30.16,30.09,6,1,6,0.00
2013-8-17,78,78,78,54,54,54,43,43,43,30.23,30.17,2,2,2,0.00
2013-9-7,78,78,78,54,54,54,43,43,43,30.18,30.18,2,2,2,0.00
2013-12-6,43,38,36,41,37,21,99,97,43,29.92,29.92,15,8,15,0.48
2013-12-7,43,38,35,36,31,21,99,78,52,29.92,29.92,16,6,16,0.18
2013-12-8,33,31,28,31,24,17,99,75,58,29.92,29.92,12,5,12,0.18
2013-12-9,40,36,31,40,36,31,99,99,98,29.92,28.21,15,6,15,0.46
2013-12-10,37,34,30,36,32,19,99,92,64,28.21,28.21,13,4,13,0.12
2013-12-11,35,30,26,21,19,17,70,62,51,28.21,28.21,16,7,16,0.03
2013-12-12,29,26,23,17,9,5,68,50,37,28.21,28.21,18,8,18,0.00
2013-12-13,36,29,23,19,13,7,57,51,44,29.25,28.21,21,7,21,0.18
2013-12-14,33,26,24,32,23,17,99,88,68,29.25,29.25,15,8,15,0.00
2013-12-15,41,37,31,35,32,28,99,84,69,29.25,29.25,16,7,16,1.39
2013-12-16,32,29,27,14,11,9,58,47,42,29.25,29.25,14,6,14,0.00
2013-12-17,32,27,24,32,22,9,99,82,45,29.25,29.25,10,5,10,0.00
2013-12-18,31,28,24,26,24,22,94,85,79,29.25,28.50,12,4,12,0.00
2013-12-19,45,43,40,33,32,30,73,65,57,28.50,28.50,6,2,6,0.14
2013-12-20,51,43,36,42,36,31,84,76,68,31.33,28.50,7,2,7,0.00
2013-12-21,52,50,46,50,49,42,99,96,84,31.33,31.33,7,2,7,0.00
2013-12-22,69,56,49,63,54,16,99,96,80,31.33,27.96,13,4,13,0.02
2013-12-23,56,52,42,56,51,38,99,98,83,27.96,27.96,14,3,14,0.69
2013-12-24,42,36,27,38,25,8,84,63,45,27.96,27.96,20,8,20,0.00
2013-12-25,31,25,19,22,10,6,69,53,44,29.46,27.96,21,6,21,0.00
2013-12-26,38,33,28,27,24,20,75,69,55,29.46,29.46,13,4,13,0.00
2013-12-27,42,36,31,26,22,19,72,58,44,29.46,29.46,12,5,12,0.00
2013-12-28,56,44,32,32,28,24,75,55,36,29.46,29.46,13,4,13,0.00
2013-12-29,48,43,41,47,38,29,99,82,51,29.46,29.46,17,5,17,1.67
2013-12-30,46,37,24,41,30,11,98,76,54,29.86,29.46,15,6,15,0.00
2013-12-31,33,27,21,24,15,9,72,60,48,29.46,29.46,17,6,17,0.00
2014-1-1,33,28,23,21,14,8,67,57,48,29.46,29.07,14,5,14,0.00
2014-1-2,32,27,18,27,23,-31,99,87,64,29.07,29.07,21,11,21,0.00